createdAt,value
2022-11-23T00:02:27.737Z,6.43
2022-11-23T00:05:31.213Z,6.35
2022-11-23T00:08:33.871Z,6.30
2022-11-23T00:11:38.048Z,6.18
2022-11-23T00:14:40.822Z,6.21
2022-11-23T00:17:43.412Z,6.07
2022-11-23T00:20:46.068Z,6.00
2022-11-23T00:23:48.954Z,5.77
2022-11-23T00:26:52.977Z,5.63
2022-11-23T00:29:55.626Z,5.59
2022-11-23T00:32:58.241Z,5.76
2022-11-23T00:36:01.656Z,5.98
2022-11-23T00:39:04.727Z,5.93
2022-11-23T00:42:08.680Z,6.16
2022-11-23T00:45:11.787Z,6.36
2022-11-23T00:48:14.367Z,6.66
2022-11-23T00:51:18.566Z,6.83
2022-11-23T00:54:21.232Z,6.94
2022-11-23T00:57:25.466Z,7.03
2022-11-23T01:00:28.740Z,6.97
2022-11-23T01:03:32.052Z,6.99
2022-11-23T01:06:36.480Z,7.07
2022-11-23T01:09:39.080Z,7.04
2022-11-23T01:12:43.016Z,7.06
2022-11-23T01:15:50.380Z,7.03
2022-11-23T01:18:54.410Z,6.99
2022-11-23T01:21:57.111Z,6.98
2022-11-23T01:24:59.793Z,6.90
2022-11-23T01:28:03.883Z,6.82
2022-11-23T01:31:07.601Z,6.79
2022-11-23T01:34:11.387Z,6.68
2022-11-23T01:37:14.159Z,6.75
2022-11-23T01:40:17.435Z,6.83
2022-11-23T01:43:21.430Z,6.98
2022-11-23T01:46:24.012Z,6.96
2022-11-23T01:49:27.447Z,6.83
2022-11-23T01:52:30.042Z,6.80
2022-11-23T01:55:32.659Z,6.75
2022-11-23T01:58:39.747Z,6.71
2022-11-23T02:01:42.480Z,6.52
2022-11-23T02:04:48.283Z,6.29
2022-11-23T02:07:51.323Z,5.90
2022-11-23T02:10:54.337Z,5.71
2022-11-23T02:13:58.249Z,5.51
2022-11-23T02:17:00.903Z,5.41
2022-11-23T02:20:07.560Z,5.28
2022-11-23T02:23:17.698Z,5.25
2022-11-23T02:26:23.345Z,5.17
2022-11-23T02:29:26.712Z,5.00
2022-11-23T02:32:30.061Z,4.99
2022-11-23T02:35:32.666Z,4.86
2022-11-23T02:38:35.268Z,4.70
2022-11-23T02:41:41.916Z,4.60
2022-11-23T02:44:49.699Z,4.48
2022-11-23T02:47:52.328Z,4.29
2022-11-23T02:50:54.975Z,4.32
2022-11-23T02:53:57.587Z,4.26
2022-11-23T02:57:01.689Z,4.27
2022-11-23T03:00:05.512Z,4.36
2022-11-23T03:03:08.091Z,4.20
2022-11-23T03:06:11.135Z,4.04
2022-11-23T03:09:13.749Z,3.91
2022-11-23T03:12:17.698Z,4.13
2022-11-23T03:15:20.323Z,4.20
2022-11-23T03:18:22.868Z,4.11
2022-11-23T03:21:25.474Z,4.00
2022-11-23T03:24:28.030Z,3.99
2022-11-23T03:27:33.620Z,3.97
2022-11-23T03:30:36.171Z,4.00
2022-11-23T03:33:38.757Z,4.06
2022-11-23T03:36:41.371Z,4.04
2022-11-23T03:39:47.497Z,4.12
2022-11-23T03:42:51.977Z,4.30
2022-11-23T03:45:54.590Z,4.51
2022-11-23T03:48:57.403Z,4.72
2022-11-23T03:51:59.982Z,4.92
2022-11-23T03:58:30.502Z,5.23
2022-11-23T04:01:33.030Z,5.31
2022-11-23T04:04:35.920Z,5.39
2022-11-23T04:07:38.573Z,5.45
2022-11-23T04:10:41.201Z,5.47
2022-11-23T04:13:45.117Z,5.47
2022-11-23T04:16:47.553Z,5.52
2022-11-23T04:19:50.095Z,5.54
2022-11-23T04:22:52.760Z,5.56
2022-11-23T04:25:55.462Z,5.59
2022-11-23T04:28:59.450Z,5.58
2022-11-23T04:32:02.056Z,5.35
2022-11-23T04:35:05.240Z,5.23
2022-11-23T04:38:07.840Z,5.13
2022-11-23T04:41:11.037Z,5.05
2022-11-23T04:44:14.988Z,5.01
2022-11-23T04:47:17.527Z,4.97
2022-11-23T04:50:20.263Z,4.91
2022-11-23T04:53:22.869Z,4.81
2022-11-23T04:56:25.439Z,4.71
2022-11-23T04:59:29.594Z,4.56
2022-11-23T05:02:32.557Z,4.45
2022-11-23T05:05:35.332Z,4.40
2022-11-23T05:08:38.293Z,4.31
2022-11-23T05:11:41.043Z,4.34
2022-11-23T05:14:44.968Z,4.40
2022-11-23T05:17:47.518Z,4.52
2022-11-23T05:20:50.502Z,4.68
2022-11-23T05:23:53.359Z,4.80
2022-11-23T05:26:56.560Z,4.80
2022-11-23T05:30:00.548Z,4.84
2022-11-23T05:33:04.264Z,4.95
2022-11-23T05:36:07.553Z,4.98
2022-11-23T05:39:10.130Z,5.08
2022-11-23T05:42:12.717Z,5.20
2022-11-23T05:45:16.739Z,5.32
2022-11-23T05:48:19.784Z,5.45
2022-11-23T05:51:22.386Z,5.54
2022-11-23T05:54:24.970Z,5.62
2022-11-23T05:57:27.636Z,5.72
2022-11-23T06:00:31.599Z,5.76
2022-11-23T06:03:34.257Z,5.80
2022-11-23T06:06:36.951Z,5.81
2022-11-23T06:09:39.844Z,5.79
2022-11-23T06:12:42.493Z,5.77
2022-11-23T06:15:46.569Z,5.78
2022-11-23T06:18:49.288Z,5.83
2022-11-23T06:21:51.972Z,5.96
2022-11-23T06:24:54.571Z,5.78
2022-11-23T06:27:57.690Z,5.61
2022-11-23T06:31:04.752Z,5.29
2022-11-23T06:34:07.377Z,5.06
2022-11-23T06:37:10.137Z,4.81
2022-11-23T06:40:13.449Z,4.61
2022-11-23T06:43:16.107Z,4.47
2022-11-23T06:46:20.412Z,4.55
2022-11-23T06:49:23.297Z,4.52
2022-11-23T06:52:26.012Z,4.46
2022-11-23T06:55:28.760Z,4.45
2022-11-23T06:58:31.372Z,4.45
2022-11-23T07:01:35.408Z,4.25
2022-11-23T07:04:38.047Z,4.23
2022-11-23T07:07:40.832Z,4.19
2022-11-23T07:10:43.612Z,4.15
2022-11-23T07:13:46.366Z,4.15
2022-11-23T07:16:50.500Z,4.10
2022-11-23T07:19:53.274Z,4.10
2022-11-23T07:23:01.296Z,4.20
2022-11-23T07:26:04.049Z,4.18
2022-11-23T07:29:06.624Z,4.15
2022-11-23T07:32:10.821Z,4.19
2022-11-23T07:35:13.519Z,4.21
2022-11-23T07:38:16.305Z,4.37
2022-11-23T07:41:18.997Z,4.58
2022-11-23T07:44:21.741Z,4.86
2022-11-23T07:47:26.233Z,4.95
2022-11-23T07:50:29.417Z,5.00
2022-11-23T07:53:31.992Z,4.99
2022-11-23T07:56:34.715Z,4.98
2022-11-23T07:59:37.590Z,4.96
2022-11-23T08:02:57.755Z,5.03
2022-11-23T08:06:04.483Z,5.16
2022-11-23T08:09:07.161Z,5.27
2022-11-23T08:12:09.781Z,5.43
2022-11-23T08:15:12.702Z,5.58
2022-11-23T08:18:16.752Z,5.78
2022-11-23T08:21:19.462Z,5.87
2022-11-23T08:24:22.438Z,5.89
2022-11-23T08:27:25.138Z,5.97
2022-11-23T08:30:28.948Z,5.93
2022-11-23T08:33:32.726Z,5.94
2022-11-23T08:36:35.395Z,5.98
2022-11-23T08:39:38.164Z,5.96
2022-11-23T08:42:40.852Z,5.97
2022-11-23T08:45:43.522Z,6.07
2022-11-23T08:48:47.577Z,6.17
2022-11-23T08:51:50.539Z,6.20
2022-11-23T08:54:53.253Z,6.27
2022-11-23T08:57:56.826Z,6.33
2022-11-23T09:00:59.518Z,6.43
2022-11-23T09:04:04.605Z,6.49
2022-11-23T09:07:07.664Z,6.64
2022-11-23T09:10:15.045Z,6.79
2022-11-23T09:13:20.778Z,6.90
2022-11-23T09:16:23.453Z,6.94
2022-11-23T09:19:27.483Z,6.91
2022-11-23T09:22:30.181Z,7.00
2022-11-23T09:25:32.811Z,7.04
2022-11-23T09:28:38.048Z,7.09
2022-11-23T09:31:43.019Z,7.29
2022-11-23T09:34:47.120Z,7.41
2022-11-23T09:37:50.004Z,7.50
2022-11-23T09:40:57.839Z,7.59
2022-11-23T09:44:03.934Z,7.74
2022-11-23T09:47:15.599Z,7.78
2022-11-23T09:50:25.824Z,7.89
2022-11-23T09:53:31.656Z,7.94
2022-11-23T09:56:36.578Z,8.05
2022-11-23T09:59:42.238Z,8.20
2022-11-23T10:02:45.170Z,8.28
2022-11-23T10:05:59.085Z,8.43
2022-11-23T10:09:18.192Z,8.52
2022-11-23T10:12:40.486Z,8.65
2022-11-23T10:15:52.554Z,8.85
2022-11-23T10:19:00.300Z,8.97
2022-11-23T10:22:11.528Z,9.08
2022-11-23T10:25:17.833Z,9.08
2022-11-23T10:28:22.711Z,9.26
2022-11-23T10:31:25.958Z,9.32
2022-11-23T10:34:43.696Z,9.26
2022-11-23T10:37:47.690Z,9.37
2022-11-23T10:40:58.675Z,9.46
2022-11-23T10:44:06.733Z,9.51
2022-11-23T10:47:09.530Z,9.55
2022-11-23T10:50:27.244Z,9.63
2022-11-23T10:53:33.881Z,9.72
2022-11-23T10:56:36.749Z,9.82
2022-11-23T10:59:40.121Z,9.79
2022-11-23T11:02:45.213Z,9.78
2022-11-23T11:06:08.701Z,9.81
2022-11-23T11:09:19.259Z,9.86
2022-11-23T11:12:22.059Z,9.84
2022-11-23T11:15:25.040Z,9.94
2022-11-23T11:18:30.255Z,9.88
2022-11-23T11:21:34.951Z,10.01
2022-11-23T11:24:44.041Z,10.06
2022-11-23T11:27:52.811Z,10.12
2022-11-23T11:31:10.189Z,10.16
2022-11-23T11:34:19.422Z,10.10
2022-11-23T11:37:31.929Z,10.26
2022-11-23T11:40:39.068Z,10.31
2022-11-23T11:43:44.521Z,10.30
2022-11-23T11:46:48.990Z,10.34
2022-11-23T11:49:55.176Z,10.37
2022-11-23T11:53:02.977Z,10.39
2022-11-23T11:56:13.218Z,10.37
2022-11-23T11:59:19.356Z,10.37
2022-11-23T12:02:25.610Z,10.38
2022-11-23T12:05:31.601Z,10.43
2022-11-23T12:08:42.014Z,10.39
2022-11-23T12:11:46.096Z,10.47
2022-11-23T12:14:48.881Z,10.25
2022-11-23T12:18:16.211Z,10.36
2022-11-23T12:21:36.406Z,10.37
2022-11-23T12:24:49.769Z,10.47
2022-11-23T12:28:00.856Z,10.44
2022-11-23T12:31:09.425Z,10.49
2022-11-23T12:34:31.614Z,10.59
2022-11-23T12:37:41.368Z,10.68
2022-11-23T12:40:53.368Z,10.73
2022-11-23T12:44:14.427Z,10.82
2022-11-23T12:47:27.348Z,11.98
2022-11-23T12:50:35.347Z,18.21
2022-11-23T12:53:45.223Z,21.99
2022-11-23T12:57:05.660Z,25.58
2022-11-23T13:00:16.965Z,27.69
2022-11-23T13:03:42.801Z,25.84
2022-11-23T13:07:28.475Z,26.72
2022-11-23T13:10:28.776Z,27.06
2022-11-23T13:13:43.133Z,27.38
2022-11-23T13:17:04.837Z,29.47
2022-11-23T13:20:27.770Z,30.13
2022-11-23T13:23:36.177Z,30.61
2022-11-23T13:26:38.972Z,31.43
2022-11-23T13:29:52.312Z,32.56
2022-11-23T13:32:58.905Z,30.08
2022-11-23T13:36:07.643Z,30.26
2022-11-23T13:40:00.792Z,28.91
2022-11-23T13:43:06.049Z,29.58
2022-11-23T13:46:15.232Z,29.51
2022-11-23T13:49:33.233Z,26.83
2022-11-23T13:52:36.919Z,28.74
2022-11-23T13:55:39.759Z,31.02
2022-11-23T13:58:51.807Z,30.95
2022-11-23T14:02:28.276Z,31.01
2022-11-23T14:05:56.966Z,30.83
2022-11-23T14:09:03.573Z,26.52
2022-11-23T14:12:13.673Z,28.03
2022-11-23T14:15:18.397Z,21.93
2022-11-23T14:18:39.809Z,16.92
2022-11-23T14:21:49.269Z,13.90
2022-11-23T14:25:03.017Z,12.54
2022-11-23T14:28:08.287Z,11.97
2022-11-23T14:31:18.084Z,11.55
2022-11-23T14:34:26.703Z,11.20
2022-11-23T14:37:37.844Z,11.09
2022-11-23T14:40:49.563Z,10.88
2022-11-23T14:43:52.454Z,10.77
2022-11-23T14:47:01.912Z,10.59
2022-11-23T14:50:04.959Z,10.45
2022-11-23T14:53:12.007Z,10.29
2022-11-23T14:56:24.124Z,10.24
2022-11-23T14:59:28.414Z,10.00
2022-11-23T15:02:34.888Z,9.86
2022-11-23T15:05:38.760Z,9.73
2022-11-23T15:08:47.110Z,9.47
2022-11-23T15:11:50.445Z,9.25
2022-11-23T15:14:54.093Z,9.06
2022-11-23T15:17:57.054Z,9.15
2022-11-23T15:21:01.903Z,9.17
2022-11-23T15:24:06.196Z,9.05
2022-11-23T15:27:17.770Z,8.87
2022-11-23T15:30:21.586Z,8.76
2022-11-23T15:33:25.093Z,8.59
2022-11-23T15:36:30.026Z,8.51
2022-11-23T15:39:34.914Z,8.63
2022-11-23T15:42:38.341Z,8.50
2022-11-23T15:45:59.976Z,8.34
2022-11-23T15:49:04.416Z,8.48
2022-11-23T15:52:07.314Z,8.69
2022-11-23T15:55:15.187Z,8.64
2022-11-23T15:58:19.033Z,8.74
2022-11-23T16:01:22.369Z,8.74
2022-11-23T16:04:28.126Z,8.84
2022-11-23T16:07:31.068Z,8.96
2022-11-23T16:10:35.715Z,9.12
2022-11-23T16:13:39.956Z,9.18
2022-11-23T16:16:46.153Z,9.32
2022-11-23T16:19:50.267Z,9.43
2022-11-23T16:22:53.803Z,9.48
2022-11-23T16:25:59.413Z,9.46
2022-11-23T16:29:02.398Z,9.54
2022-11-23T16:32:07.242Z,9.52
2022-11-23T16:35:18.592Z,9.57
2022-11-23T16:38:21.871Z,9.61
2022-11-23T16:41:26.015Z,9.72
2022-11-23T16:44:30.933Z,9.87
2022-11-23T16:47:34.173Z,9.79
2022-11-23T16:50:40.598Z,9.77
2022-11-23T16:54:11.883Z,9.69
2022-11-23T16:57:08.531Z,9.55
2022-11-23T17:00:17.341Z,9.44
2022-11-23T17:03:21.268Z,9.47
2022-11-23T17:06:23.929Z,9.48
2022-11-23T17:09:26.534Z,9.47
2022-11-23T17:12:30.918Z,9.44
2022-11-23T17:15:34.516Z,9.34
2022-11-23T17:18:37.124Z,9.33
2022-11-23T17:21:39.855Z,9.28
2022-11-23T17:24:42.585Z,9.23
2022-11-23T17:27:47.325Z,9.24
2022-11-23T17:30:50.156Z,9.20
2022-11-23T17:33:52.792Z,9.14
2022-11-23T17:36:55.360Z,9.12
2022-11-23T17:39:57.972Z,9.12
2022-11-23T17:43:02.164Z,9.12
2022-11-23T17:46:05.156Z,9.09
2022-11-23T17:49:11.284Z,9.02
2022-11-23T17:52:13.948Z,8.96
2022-11-23T17:55:17.261Z,8.92
2022-11-23T17:58:21.281Z,8.85
2022-11-23T18:01:24.891Z,8.84
2022-11-23T18:04:27.692Z,8.71
2022-11-23T18:07:30.459Z,8.57
2022-11-23T18:10:33.177Z,8.49
2022-11-23T18:13:37.891Z,8.42
2022-11-23T18:16:40.850Z,8.44
2022-11-23T18:19:43.549Z,8.42
2022-11-23T18:22:46.200Z,8.34
2022-11-23T18:25:59.459Z,8.30
2022-11-23T18:29:04.269Z,8.17
2022-11-23T18:32:08.330Z,8.18
2022-11-23T18:35:11.185Z,8.13
2022-11-23T18:38:13.888Z,8.16
2022-11-23T18:41:17.921Z,8.23
2022-11-23T18:44:21.801Z,8.21
2022-11-23T18:47:25.066Z,8.25
2022-11-23T18:50:27.709Z,8.10
2022-11-23T18:53:30.416Z,8.03
2022-11-23T18:56:33.172Z,8.09
2022-11-23T19:03:02.150Z,8.10
2022-11-23T19:06:05.746Z,8.02
2022-11-23T19:09:08.428Z,8.07
2022-11-23T19:12:11.086Z,8.18
2022-11-23T19:15:15.125Z,8.13
2022-11-23T19:18:17.851Z,8.16
2022-11-23T19:21:22.397Z,8.20
2022-11-23T19:24:24.996Z,8.14
2022-11-23T19:27:27.886Z,8.31
2022-11-23T19:30:31.907Z,8.36
2022-11-23T19:33:34.998Z,8.37
2022-11-23T19:36:37.603Z,8.39
2022-11-23T19:39:40.193Z,8.33
2022-11-23T19:42:43.524Z,8.60
2022-11-23T19:45:54.660Z,8.66
2022-11-23T19:48:58.173Z,8.76
2022-11-23T19:52:01.806Z,8.79
2022-11-23T19:55:05.874Z,8.72
2022-11-23T19:58:08.634Z,8.74
2022-11-23T20:01:14.884Z,8.73
2022-11-23T20:04:17.671Z,8.70
2022-11-23T20:07:20.688Z,8.71
2022-11-23T20:10:23.435Z,8.72
2022-11-23T20:13:26.780Z,8.69
2022-11-23T20:16:32.791Z,8.72
2022-11-23T20:19:35.743Z,8.96
2022-11-23T20:22:38.730Z,8.93
2022-11-23T20:25:42.259Z,8.90
2022-11-23T20:28:45.103Z,9.02
2022-11-23T20:31:51.397Z,9.09
2022-11-23T20:34:54.110Z,9.03
2022-11-23T20:37:57.173Z,8.90
2022-11-23T20:40:59.839Z,9.02
2022-11-23T20:44:04.151Z,9.17
2022-11-23T20:47:08.216Z,9.17
2022-11-23T20:50:11.227Z,9.13
2022-11-23T20:53:13.902Z,9.20
2022-11-23T20:56:17.247Z,9.19
2022-11-23T20:59:20.775Z,9.22
2022-11-23T21:02:24.839Z,9.22
2022-11-23T21:05:29.223Z,9.27
2022-11-23T21:08:34.798Z,9.24
2022-11-23T21:11:55.888Z,9.34
2022-11-23T21:14:58.851Z,9.18
2022-11-23T21:18:03.097Z,9.12
2022-11-23T21:21:05.991Z,8.99
2022-11-23T21:24:09.127Z,8.99
2022-11-23T21:27:13.448Z,8.87
2022-11-23T21:30:16.276Z,8.90
2022-11-23T21:33:20.315Z,8.79
2022-11-23T21:36:23.346Z,8.68
2022-11-23T21:39:25.995Z,8.73
2022-11-23T21:42:28.691Z,8.84
2022-11-23T21:45:31.340Z,8.83
2022-11-23T21:48:35.711Z,8.65
2022-11-23T21:51:39.197Z,8.66
2022-11-23T21:54:47.282Z,8.88
2022-11-23T21:57:51.668Z,9.09
2022-11-23T22:00:54.341Z,9.20
2022-11-23T22:03:59.729Z,9.13
2022-11-23T22:07:02.333Z,8.91
2022-11-23T22:10:05.164Z,8.78
2022-11-23T22:13:07.731Z,8.64
2022-11-23T22:16:15.472Z,8.63
2022-11-23T22:19:19.522Z,8.64
2022-11-23T22:22:22.137Z,8.65
2022-11-23T22:25:24.719Z,8.50
2022-11-23T22:28:31.923Z,8.32
2022-11-23T22:31:35.805Z,8.16
2022-11-23T22:34:40.395Z,7.99
2022-11-23T22:37:43.020Z,7.85
2022-11-23T22:40:46.802Z,7.69
2022-11-23T22:43:49.417Z,7.61
2022-11-23T22:46:52.031Z,7.48
2022-11-23T22:49:56.000Z,7.24
2022-11-23T22:52:59.953Z,6.99
2022-11-23T22:56:03.234Z,6.83
2022-11-23T22:59:05.971Z,6.74
2022-11-23T23:02:08.646Z,6.66
2022-11-23T23:05:12.914Z,6.52
2022-11-23T23:08:15.519Z,6.47
2022-11-23T23:11:18.194Z,6.42
2022-11-23T23:14:21.028Z,6.33
2022-11-23T23:17:24.081Z,6.27
2022-11-23T23:20:27.996Z,6.17
2022-11-23T23:23:31.033Z,6.17
2022-11-23T23:26:33.685Z,6.12
2022-11-23T23:29:36.276Z,6.22
2022-11-23T23:32:38.927Z,6.16
2022-11-23T23:35:42.855Z,6.29
2022-11-23T23:38:45.485Z,6.29
2022-11-23T23:41:48.050Z,6.44
2022-11-23T23:44:50.665Z,6.47
2022-11-23T23:47:53.353Z,6.47
2022-11-23T23:50:57.379Z,6.57
2022-11-23T23:54:00.013Z,6.74
2022-11-23T23:57:02.753Z,6.69
